Time;durP1;ratioP1;P1;durP2;ratioP2;P2;SDS_P1;SDS_P2;PMS_P1;PMS_P2;Temp;Humidity;BMP_temperature;BMP_pressure;BME280_temperature;BME280_humidity;BME280_pressure;Samples;Min_cycle;Max_cycle;Signal;HPM_P1;HPM_P2
2023/07/01 00:00:57;;;;;;;0.00;0.00;;;;;;;;;;5049702;28;20039;-85
2023/07/01 00:03:23;;;;;;;0.00;0.00;;;;;;;;;;5048875;28;20029;-85
2023/07/01 00:05:50;;;;;;;0.10;0.10;;;;;;;;;;5048029;28;20025;-85
2023/07/01 00:08:16;;;;;;;0.10;0.10;;;;;;;;;;5049485;28;20032;-85
2023/07/01 00:10:42;;;;;;;0.10;0.10;;;;;;;;;;5049106;28;20018;-85
2023/07/01 00:13:08;;;;;;;0.10;0.10;;;;;;;;;;5049116;28;20133;-85
2023/07/01 00:15:34;;;;;;;0.10;0.10;;;;;;;;;;5049199;28;20109;-85
2023/07/01 00:18:00;;;;;;;0.17;0.17;;;;;;;;;;5049149;28;20051;-85
2023/07/01 00:20:26;;;;;;;0.70;0.22;;;;;;;;;;5048698;28;20018;-86
2023/07/01 00:22:53;;;;;;;0.05;0.05;;;;;;;;;;5048349;28;20040;-86
2023/07/01 00:25:19;;;;;;;0.10;0.10;;;;;;;;;;5049745;28;20534;-86
2023/07/01 00:27:45;;;;;;;0.13;0.13;;;;;;;;;;5048919;28;20102;-86
2023/07/01 00:30:11;;;;;;;0.10;0.10;;;;;;;;;;5049488;28;20029;-86
2023/07/01 00:32:37;;;;;;;0.10;0.10;;;;;;;;;;5048841;28;20039;-86
2023/07/01 00:35:04;;;;;;;0.13;0.13;;;;;;;;;;5049036;28;20100;-86
2023/07/01 00:37:30;;;;;;;0.10;0.10;;;;;;;;;;5049078;28;20032;-85
2023/07/01 00:39:56;;;;;;;0.08;0.08;;;;;;;;;;5049198;28;20033;-86
2023/07/01 00:42:22;;;;;;;0.00;0.00;;;;;;;;;;5048749;28;20044;-85
2023/07/01 00:44:48;;;;;;;0.10;0.10;;;;;;;;;;5048979;28;20026;-86
2023/07/01 00:47:14;;;;;;;0.00;0.00;;;;;;;;;;5048409;27;20520;-85
2023/07/01 00:49:40;;;;;;;0.10;0.10;;;;;;;;;;5048968;28;20025;-85
2023/07/01 00:52:07;;;;;;;0.10;0.10;;;;;;;;;;5048561;28;20025;-86
2023/07/01 00:54:34;;;;;;;0.10;0.10;;;;;;;;;;5048508;28;20401;-86
2023/07/01 00:57:03;;;;;;;0.10;0.10;;;;;;;;;;5047359;28;20025;-86
2023/07/01 00:59:29;;;;;;;0.10;0.10;;;;;;;;;;5049104;28;20136;-86
2023/07/01 01:01:56;;;;;;;0.10;0.10;;;;;;;;;;5047004;28;20054;-85
2023/07/01 01:04:23;;;;;;;0.20;0.20;;;;;;;;;;5048610;28;20113;-85
2023/07/01 01:06:52;;;;;;;0.10;0.10;;;;;;;;;;5048591;28;20063;-86
2023/07/01 01:09:21;;;;;;;0.10;0.10;;;;;;;;;;5048587;28;20077;-85
2023/07/01 01:11:48;;;;;;;0.00;0.00;;;;;;;;;;5048411;28;20132;-86
2023/07/01 01:14:16;;;;;;;0.10;0.10;;;;;;;;;;5048826;28;20029;-85
2023/07/01 01:16:42;;;;;;;0.10;0.10;;;;;;;;;;5048205;28;20077;-85
2023/07/01 01:19:19;;;;;;;0.10;0.10;;;;;;;;;;5048541;28;20032;-86
2023/07/01 01:21:46;;;;;;;0.20;0.20;;;;;;;;;;5048973;28;20044;-86
2023/07/01 01:24:13;;;;;;;0.00;0.00;;;;;;;;;;5048390;28;20490;-86
2023/07/01 01:26:40;;;;;;;0.20;0.20;;;;;;;;;;5048394;28;20041;-86
2023/07/01 01:29:06;;;;;;;0.15;0.10;;;;;;;;;;5048324;28;20063;-86
2023/07/01 01:31:33;;;;;;;0.30;0.30;;;;;;;;;;5047116;28;20030;-86
2023/07/01 01:33:59;;;;;;;0.10;0.10;;;;;;;;;;5051653;28;20025;-86
2023/07/01 01:36:31;;;;;;;0.00;0.00;;;;;;;;;;5051791;28;20033;-85
2023/07/01 01:38:59;;;;;;;0.00;0.00;;;;;;;;;;5050353;28;20100;-85
2023/07/01 01:41:31;;;;;;;0.10;0.10;;;;;;;;;;5051609;28;20040;-86
2023/07/01 01:44:02;;;;;;;0.10;0.10;;;;;;;;;;5051556;28;20121;-86
2023/07/01 01:46:28;;;;;;;0.20;0.20;;;;;;;;;;5051015;27;20029;-86
2023/07/01 01:49:01;;;;;;;0.10;0.10;;;;;;;;;;5051946;28;20025;-86
2023/07/01 01:51:28;;;;;;;0.10;0.10;;;;;;;;;;5050117;28;20620;-85
2023/07/01 01:53:55;;;;;;;0.10;0.10;;;;;;;;;;5051232;28;20024;-86
2023/07/01 01:56:21;;;;;;;0.20;0.20;;;;;;;;;;5051714;28;20025;-86
2023/07/01 01:58:47;;;;;;;0.10;0.10;;;;;;;;;;5050059;28;20025;-85
2023/07/01 02:01:14;;;;;;;0.15;0.15;;;;;;;;;;5050926;28;20453;-86
2023/07/01 02:03:40;;;;;;;0.75;0.65;;;;;;;;;;5051138;28;20394;-85
2023/07/01 02:06:06;;;;;;;0.20;0.20;;;;;;;;;;5051374;28;20028;-85
2023/07/01 02:08:32;;;;;;;0.20;0.20;;;;;;;;;;5051103;28;20474;-86
2023/07/01 02:10:58;;;;;;;0.00;0.00;;;;;;;;;;5051195;28;20029;-85
2023/07/01 02:13:24;;;;;;;0.20;0.20;;;;;;;;;;5050960;28;20032;-85
2023/07/01 02:15:50;;;;;;;0.15;0.15;;;;;;;;;;5050790;28;20069;-85
2023/07/01 02:18:16;;;;;;;0.17;0.17;;;;;;;;;;5051054;28;20114;-86
2023/07/01 02:20:43;;;;;;;0.10;0.10;;;;;;;;;;5051018;28;20467;-85
2023/07/01 02:23:09;;;;;;;0.00;0.00;;;;;;;;;;5049730;28;20040;-85
2023/07/01 02:25:35;;;;;;;0.20;0.20;;;;;;;;;;5049711;28;20024;-86
2023/07/01 02:28:01;;;;;;;0.17;0.17;;;;;;;;;;5051272;28;20487;-85
2023/07/01 02:30:27;;;;;;;0.13;0.13;;;;;;;;;;5050461;28;20029;-86
2023/07/01 02:32:53;;;;;;;0.90;0.40;;;;;;;;;;5050796;28;20514;-85
2023/07/01 02:35:19;;;;;;;0.20;0.20;;;;;;;;;;5050866;28;20053;-86
2023/07/01 02:37:45;;;;;;;0.08;0.08;;;;;;;;;;5050893;28;20097;-86
2023/07/01 02:40:11;;;;;;;0.10;0.10;;;;;;;;;;5050986;28;20539;-86
2023/07/01 02:42:37;;;;;;;0.00;0.00;;;;;;;;;;5050251;28;20067;-86
2023/07/01 02:45:04;;;;;;;0.00;0.00;;;;;;;;;;5050550;27;20040;-86
2023/07/01 02:47:31;;;;;;;0.10;0.10;;;;;;;;;;5050907;27;20044;-86
2023/07/01 02:49:57;;;;;;;0.25;0.25;;;;;;;;;;5050378;28;20108;-85
2023/07/01 02:52:23;;;;;;;0.63;0.50;;;;;;;;;;5049154;28;20132;-86
2023/07/01 02:54:49;;;;;;;0.10;0.10;;;;;;;;;;5050256;28;20551;-86
2023/07/01 02:57:15;;;;;;;0.10;0.10;;;;;;;;;;5049164;28;20053;-86
2023/07/01 02:59:43;;;;;;;0.10;0.10;;;;;;;;;;5050848;28;20367;-85
2023/07/01 03:02:09;;;;;;;0.17;0.17;;;;;;;;;;5049091;28;20029;-85
2023/07/01 03:04:35;;;;;;;0.10;0.10;;;;;;;;;;5050654;28;20029;-85
2023/07/01 03:07:04;;;;;;;0.10;0.10;;;;;;;;;;5050132;28;20359;-85
2023/07/01 03:09:29;;;;;;;0.43;0.43;;;;;;;;;;5050384;28;20028;-85
2023/07/01 03:11:56;;;;;;;0.10;0.10;;;;;;;;;;5049692;28;20025;-85
2023/07/01 03:14:22;;;;;;;0.10;0.10;;;;;;;;;;5049958;28;20064;-85
2023/07/01 03:16:49;;;;;;;0.03;0.03;;;;;;;;;;5050207;28;20057;-85
2023/07/01 03:19:15;;;;;;;0.03;0.03;;;;;;;;;;5049899;28;20037;-85
2023/07/01 03:21:42;;;;;;;0.10;0.10;;;;;;;;;;5048968;28;20508;-85
2023/07/01 03:24:08;;;;;;;0.10;0.10;;;;;;;;;;5049972;28;20390;-85
2023/07/01 03:26:34;;;;;;;0.08;0.08;;;;;;;;;;5049932;28;20037;-85
2023/07/01 03:29:00;;;;;;;0.00;0.00;;;;;;;;;;5049928;28;20063;-85
2023/07/01 03:31:26;;;;;;;0.10;0.10;;;;;;;;;;5049971;28;20033;-85
2023/07/01 03:33:52;;;;;;;0.17;0.17;;;;;;;;;;5049667;28;20029;-85
2023/07/01 03:36:18;;;;;;;0.20;0.20;;;;;;;;;;5048595;28;20032;-85
2023/07/01 03:38:44;;;;;;;0.10;0.10;;;;;;;;;;5049978;28;20028;-85
2023/07/01 03:41:10;;;;;;;0.20;0.20;;;;;;;;;;5049782;28;20359;-85
2023/07/01 03:43:36;;;;;;;0.10;0.10;;;;;;;;;;5049716;28;20043;-85
2023/07/01 03:46:05;;;;;;;0.43;0.43;;;;;;;;;;5048466;28;20021;-85
2023/07/01 03:48:31;;;;;;;0.10;0.10;;;;;;;;;;5049585;27;20033;-85
2023/07/01 03:50:57;;;;;;;0.10;0.10;;;;;;;;;;5048340;28;20027;-85
2023/07/01 03:53:23;;;;;;;0.10;0.10;;;;;;;;;;5049519;28;20462;-85
2023/07/01 03:55:49;;;;;;;0.10;0.10;;;;;;;;;;5047144;28;20033;-85
2023/07/01 03:58:21;;;;;;;0.10;0.10;;;;;;;;;;5049869;28;20013;-85
2023/07/01 04:00:50;;;;;;;0.25;0.25;;;;;;;;;;5048291;28;20132;-85
2023/07/01 04:03:16;;;;;;;0.32;0.32;;;;;;;;;;5049201;28;20076;-85
2023/07/01 04:05:43;;;;;;;0.15;0.15;;;;;;;;;;5049241;28;20490;-85
2023/07/01 04:08:09;;;;;;;0.28;0.20;;;;;;;;;;5050040;28;20044;-85
2023/07/01 04:10:35;;;;;;;0.00;0.00;;;;;;;;;;5048922;28;20475;-85
2023/07/01 04:13:01;;;;;;;0.20;0.20;;;;;;;;;;5049174;28;20078;-85
2023/07/01 04:15:27;;;;;;;0.20;0.20;;;;;;;;;;5049547;28;20068;-85
2023/07/01 04:17:54;;;;;;;0.30;0.30;;;;;;;;;;5047881;28;20032;-85
2023/07/01 04:20:20;;;;;;;0.10;0.10;;;;;;;;;;5049136;28;20029;-85
2023/07/01 04:22:46;;;;;;;0.22;0.22;;;;;;;;;;5048919;28;20032;-85
2023/07/01 04:25:12;;;;;;;0.20;0.20;;;;;;;;;;5049211;28;20029;-85
2023/07/01 04:27:38;;;;;;;0.40;0.40;;;;;;;;;;5049057;28;20049;-85
2023/07/01 04:30:08;;;;;;;0.10;0.10;;;;;;;;;;5048913;28;20249;-85
2023/07/01 04:32:35;;;;;;;0.10;0.10;;;;;;;;;;5049029;28;20150;-85
2023/07/01 04:35:01;;;;;;;0.10;0.10;;;;;;;;;;5047798;28;20029;-85
2023/07/01 04:37:27;;;;;;;0.20;0.20;;;;;;;;;;5049191;28;20036;-85
2023/07/01 04:39:53;;;;;;;0.10;0.10;;;;;;;;;;5047732;28;20111;-85
2023/07/01 04:42:19;;;;;;;0.20;0.20;;;;;;;;;;5048805;28;20044;-85
2023/07/01 04:44:53;;;;;;;0.63;0.60;;;;;;;;;;5048901;28;20021;-85
2023/07/01 04:47:19;;;;;;;0.10;0.10;;;;;;;;;;5038335;27;20037;-85
2023/07/01 04:49:45;;;;;;;0.30;0.20;;;;;;;;;;5027758;28;20394;-85
2023/07/01 04:52:14;;;;;;;0.10;0.10;;;;;;;;;;5028747;28;20472;-86
2023/07/01 04:54:40;;;;;;;0.20;0.20;;;;;;;;;;5028864;28;20117;-85
2023/07/01 04:57:06;;;;;;;0.08;0.08;;;;;;;;;;5029128;28;20530;-85
2023/07/01 04:59:32;;;;;;;0.10;0.10;;;;;;;;;;5028734;28;20022;-85
2023/07/01 05:01:58;;;;;;;0.10;0.10;;;;;;;;;;5027792;28;20033;-85
2023/07/01 05:04:24;;;;;;;0.20;0.20;;;;;;;;;;5028731;28;20029;-85
2023/07/01 05:06:51;;;;;;;0.57;0.57;;;;;;;;;;5029283;28;20387;-85
2023/07/01 05:09:17;;;;;;;0.20;0.20;;;;;;;;;;5032454;28;20535;-85
2023/07/01 05:11:43;;;;;;;0.15;0.15;;;;;;;;;;5032391;28;20499;-85
2023/07/01 05:14:09;;;;;;;0.10;0.10;;;;;;;;;;5031926;28;20116;-85
2023/07/01 05:16:35;;;;;;;0.10;0.10;;;;;;;;;;5030856;28;20100;-85
2023/07/01 05:19:02;;;;;;;0.28;0.22;;;;;;;;;;5031996;28;20029;-85
2023/07/01 05:21:31;;;;;;;0.08;0.08;;;;;;;;;;5032494;28;20029;-86
2023/07/01 05:23:57;;;;;;;0.30;0.30;;;;;;;;;;5050925;28;20068;-88
2023/07/01 05:26:23;;;;;;;0.25;0.25;;;;;;;;;;5050828;28;20038;-87
2023/07/01 05:28:49;;;;;;;0.45;0.45;;;;;;;;;;5051915;28;20033;-87
2023/07/01 05:31:15;;;;;;;0.10;0.10;;;;;;;;;;5050790;28;20025;-83
2023/07/01 05:33:44;;;;;;;0.10;0.10;;;;;;;;;;5051822;28;20033;-82
2023/07/01 05:36:10;;;;;;;0.10;0.10;;;;;;;;;;5052113;28;20414;-83
2023/07/01 05:38:36;;;;;;;0.10;0.10;;;;;;;;;;5051755;28;20053;-82
2023/07/01 05:41:02;;;;;;;0.35;0.17;;;;;;;;;;5050236;28;20395;-83
2023/07/01 05:43:28;;;;;;;0.00;0.00;;;;;;;;;;5051135;28;20037;-82
2023/07/01 05:45:54;;;;;;;0.38;0.20;;;;;;;;;;5049847;28;20077;-82
2023/07/01 05:48:20;;;;;;;0.38;0.30;;;;;;;;;;5050756;27;20052;-82
2023/07/01 05:50:46;;;;;;;0.20;0.20;;;;;;;;;;5050903;28;20475;-83
2023/07/01 05:53:12;;;;;;;0.20;0.20;;;;;;;;;;5051044;28;20060;-82
2023/07/01 05:55:38;;;;;;;0.10;0.10;;;;;;;;;;5050848;28;20156;-82
2023/07/01 05:58:04;;;;;;;0.17;0.13;;;;;;;;;;5051039;28;20029;-82
2023/07/01 06:00:30;;;;;;;0.20;0.20;;;;;;;;;;5050120;28;20096;-82
2023/07/01 06:02:56;;;;;;;0.13;0.13;;;;;;;;;;5051119;28;20459;-82
2023/07/01 06:05:22;;;;;;;0.20;0.20;;;;;;;;;;5051688;28;20125;-82
2023/07/01 06:07:49;;;;;;;0.10;0.10;;;;;;;;;;5049537;28;20037;-82
2023/07/01 06:10:15;;;;;;;0.32;0.32;;;;;;;;;;5049934;28;20021;-82
2023/07/01 06:12:41;;;;;;;0.20;0.20;;;;;;;;;;5051008;28;20044;-82
2023/07/01 06:15:07;;;;;;;0.10;0.10;;;;;;;;;;5051173;28;20403;-82
2023/07/01 06:17:33;;;;;;;0.10;0.10;;;;;;;;;;5050339;28;20033;-82
2023/07/01 06:19:59;;;;;;;0.10;0.10;;;;;;;;;;5050906;28;20025;-82
2023/07/01 06:22:25;;;;;;;0.13;0.13;;;;;;;;;;5050200;28;20037;-82
2023/07/01 06:24:51;;;;;;;0.00;0.00;;;;;;;;;;5051133;28;20036;-82
2023/07/01 06:27:18;;;;;;;0.10;0.10;;;;;;;;;;5050567;28;20489;-81
2023/07/01 06:29:43;;;;;;;0.43;0.40;;;;;;;;;;5047326;28;20024;-82
2023/07/01 06:32:09;;;;;;;0.00;0.00;;;;;;;;;;5049802;28;20028;-82
2023/07/01 06:34:35;;;;;;;0.00;0.00;;;;;;;;;;5050196;28;20029;-82
2023/07/01 06:37:02;;;;;;;0.10;0.10;;;;;;;;;;5048548;28;20029;-82
2023/07/01 06:39:28;;;;;;;0.35;0.35;;;;;;;;;;5050787;28;20032;-82
2023/07/01 06:41:54;;;;;;;0.20;0.20;;;;;;;;;;5049272;28;20037;-81
2023/07/01 06:44:20;;;;;;;0.25;0.20;;;;;;;;;;5049902;28;20112;-82
2023/07/01 06:46:46;;;;;;;0.10;0.10;;;;;;;;;;5049142;27;20028;-82
2023/07/01 06:49:12;;;;;;;0.00;0.00;;;;;;;;;;5050167;28;20065;-82
2023/07/01 06:51:38;;;;;;;0.10;0.10;;;;;;;;;;5049998;28;20087;-82
2023/07/01 06:54:04;;;;;;;0.47;0.30;;;;;;;;;;5050394;28;20032;-82
2023/07/01 06:56:30;;;;;;;0.10;0.10;;;;;;;;;;5048945;28;20033;-82
2023/07/01 06:58:56;;;;;;;0.17;0.17;;;;;;;;;;5050750;28;20029;-83
2023/07/01 07:01:22;;;;;;;0.00;0.00;;;;;;;;;;5050247;28;20049;-82
2023/07/01 07:03:48;;;;;;;0.17;0.17;;;;;;;;;;5048418;28;20453;-82
2023/07/01 07:06:14;;;;;;;0.10;0.10;;;;;;;;;;5050122;28;20017;-84
2023/07/01 07:08:40;;;;;;;0.10;0.10;;;;;;;;;;5049961;28;20037;-85
2023/07/01 07:11:06;;;;;;;0.10;0.10;;;;;;;;;;5048922;28;20021;-84
2023/07/01 07:13:32;;;;;;;0.00;0.00;;;;;;;;;;5050072;28;20033;-84
2023/07/01 07:15:58;;;;;;;0.55;0.52;;;;;;;;;;5050050;28;20032;-84
2023/07/01 07:18:24;;;;;;;0.00;0.00;;;;;;;;;;5049322;28;20077;-85
2023/07/01 07:20:50;;;;;;;0.10;0.10;;;;;;;;;;5050361;28;20041;-89
2023/07/01 07:23:16;;;;;;;0.68;0.68;;;;;;;;;;5050054;28;20052;-88
2023/07/01 07:25:42;;;;;;;0.20;0.20;;;;;;;;;;5049354;28;20398;-89
2023/07/01 07:28:08;;;;;;;0.10;0.10;;;;;;;;;;5050033;28;20053;-89
2023/07/01 07:30:34;;;;;;;0.20;0.20;;;;;;;;;;5049494;28;20089;-90
2023/07/01 07:33:00;;;;;;;0.15;0.15;;;;;;;;;;5049859;28;20470;-89
2023/07/01 07:35:26;;;;;;;0.65;0.15;;;;;;;;;;5048578;28;20070;-89
2023/07/01 07:37:53;;;;;;;0.10;0.10;;;;;;;;;;5049460;28;20044;-89
2023/07/01 07:40:19;;;;;;;0.35;0.35;;;;;;;;;;5049265;28;20025;-90
2023/07/01 07:42:45;;;;;;;0.17;0.10;;;;;;;;;;5047859;28;20043;-89
2023/07/01 07:45:12;;;;;;;0.10;0.10;;;;;;;;;;5049066;28;20089;-90
2023/07/01 07:47:38;;;;;;;0.70;0.20;;;;;;;;;;5041658;27;20033;-89
2023/07/01 07:50:04;;;;;;;0.45;0.35;;;;;;;;;;5049075;28;20029;-89
2023/07/01 07:52:30;;;;;;;0.17;0.17;;;;;;;;;;5049780;28;20496;-89
2023/07/01 07:54:56;;;;;;;0.00;0.00;;;;;;;;;;5048345;28;20049;-88
2023/07/01 07:57:22;;;;;;;0.32;0.22;;;;;;;;;;5049819;28;20459;-89
2023/07/01 07:59:48;;;;;;;0.10;0.10;;;;;;;;;;5048913;28;20115;-89
2023/07/01 08:02:14;;;;;;;0.08;0.08;;;;;;;;;;5047651;28;20052;-89
2023/07/01 08:04:40;;;;;;;0.05;0.05;;;;;;;;;;5049162;28;20032;-89
2023/07/01 08:07:07;;;;;;;0.10;0.10;;;;;;;;;;5048189;28;20029;-86
2023/07/01 08:09:34;;;;;;;0.20;0.20;;;;;;;;;;5048194;28;20113;-86
2023/07/01 08:12:00;;;;;;;0.30;0.30;;;;;;;;;;5049131;28;20541;-84
2023/07/01 08:14:26;;;;;;;0.00;0.00;;;;;;;;;;5048213;28;20037;-84
2023/07/01 08:16:55;;;;;;;0.00;0.00;;;;;;;;;;5050307;28;20032;-85
2023/07/01 08:19:21;;;;;;;0.10;0.10;;;;;;;;;;5049287;28;20047;-85
2023/07/01 08:21:47;;;;;;;0.10;0.10;;;;;;;;;;5048462;28;20120;-87
2023/07/01 08:24:14;;;;;;;0.25;0.25;;;;;;;;;;5049238;28;20037;-83
2023/07/01 08:26:40;;;;;;;0.68;0.40;;;;;;;;;;5047178;28;20066;-83
2023/07/01 08:29:07;;;;;;;0.10;0.10;;;;;;;;;;5049260;28;20025;-83
2023/07/01 08:31:33;;;;;;;0.30;0.30;;;;;;;;;;5047057;28;20025;-82
2023/07/01 08:33:59;;;;;;;0.00;0.00;;;;;;;;;;5048944;28;20044;-82
2023/07/01 08:36:26;;;;;;;0.00;0.00;;;;;;;;;;5048508;28;20025;-82
2023/07/01 08:38:52;;;;;;;0.60;0.30;;;;;;;;;;5049246;28;20543;-81
2023/07/01 08:41:18;;;;;;;0.20;0.20;;;;;;;;;;5050062;28;20033;-82
2023/07/01 08:43:47;;;;;;;0.30;0.30;;;;;;;;;;5051855;28;20045;-82
2023/07/01 08:46:15;;;;;;;0.10;0.10;;;;;;;;;;5051293;27;20470;-82
2023/07/01 08:48:41;;;;;;;0.00;0.00;;;;;;;;;;5051655;28;20581;-82
2023/07/01 08:51:22;;;;;;;0.10;0.10;;;;;;;;;;5052231;28;20025;-82
2023/07/01 08:53:49;;;;;;;0.00;0.00;;;;;;;;;;5050766;28;20040;-82
2023/07/01 08:56:15;;;;;;;0.00;0.00;;;;;;;;;;5052685;28;20022;-82
2023/07/01 08:58:41;;;;;;;0.10;0.10;;;;;;;;;;5051601;28;20032;-82
2023/07/01 09:01:07;;;;;;;0.10;0.10;;;;;;;;;;5050943;28;20035;-82
2023/07/01 09:03:35;;;;;;;1.10;0.50;;;;;;;;;;5050566;28;20110;-82
2023/07/01 09:06:02;;;;;;;0.10;0.10;;;;;;;;;;5051862;28;20108;-82
2023/07/01 09:08:28;;;;;;;0.05;0.05;;;;;;;;;;5050395;28;20037;-83
2023/07/01 09:10:54;;;;;;;0.00;0.00;;;;;;;;;;5052361;28;20094;-82
2023/07/01 09:13:20;;;;;;;0.40;0.30;;;;;;;;;;5051654;28;20058;-82
2023/07/01 09:15:49;;;;;;;0.10;0.10;;;;;;;;;;5050884;28;20037;-82
2023/07/01 09:18:19;;;;;;;0.00;0.00;;;;;;;;;;5051397;28;20029;-82
2023/07/01 09:20:45;;;;;;;0.10;0.10;;;;;;;;;;5050532;28;20033;-84
2023/07/01 09:23:11;;;;;;;0.03;0.03;;;;;;;;;;5051157;28;20037;-84
2023/07/01 09:25:37;;;;;;;0.20;0.20;;;;;;;;;;5052174;28;20029;-84
2023/07/01 09:28:03;;;;;;;0.10;0.10;;;;;;;;;;5050386;28;20041;-84
2023/07/01 09:30:29;;;;;;;0.15;0.15;;;;;;;;;;5050360;27;20124;-83
2023/07/01 09:33:12;;;;;;;0.10;0.10;;;;;;;;;;5050630;28;20104;-84
2023/07/01 09:35:42;;;;;;;0.10;0.10;;;;;;;;;;5051029;28;20029;-84
2023/07/01 09:38:08;;;;;;;0.20;0.20;;;;;;;;;;5051354;28;20360;-83
2023/07/01 09:40:35;;;;;;;0.13;0.13;;;;;;;;;;5051078;28;20033;-83
2023/07/01 09:43:01;;;;;;;0.30;0.30;;;;;;;;;;5050207;28;20057;-83
2023/07/01 09:45:27;;;;;;;0.00;0.00;;;;;;;;;;5050358;28;20044;-84
2023/07/01 09:47:53;;;;;;;0.00;0.00;;;;;;;;;;5051874;27;20033;-84
2023/07/01 09:50:29;;;;;;;0.30;0.30;;;;;;;;;;5050849;28;20046;-83
2023/07/01 09:52:56;;;;;;;0.00;0.00;;;;;;;;;;5050163;28;20040;-84
2023/07/01 09:55:22;;;;;;;0.00;0.00;;;;;;;;;;5050873;28;20033;-84
2023/07/01 09:57:48;;;;;;;0.30;0.30;;;;;;;;;;5050256;28;20033;-84
2023/07/01 10:00:17;;;;;;;0.00;0.00;;;;;;;;;;5051166;28;20040;-83
2023/07/01 10:02:44;;;;;;;0.10;0.10;;;;;;;;;;5051352;28;20033;-83
2023/07/01 10:05:12;;;;;;;0.35;0.10;;;;;;;;;;5050969;28;20025;-84
2023/07/01 10:07:38;;;;;;;0.10;0.05;;;;;;;;;;5050834;28;20482;-83
2023/07/01 10:10:04;;;;;;;0.10;0.10;;;;;;;;;;5051053;28;20021;-84
2023/07/01 10:12:31;;;;;;;0.17;0.17;;;;;;;;;;5038952;28;20029;-84
2023/07/01 10:14:58;;;;;;;0.10;0.10;;;;;;;;;;5038403;28;20116;-83
2023/07/01 10:17:44;;;;;;;0.10;0.10;;;;;;;;;;5050522;28;20513;-84
2023/07/01 10:20:28;;;;;;;0.00;0.00;;;;;;;;;;5070990;27;20052;-84
2023/07/01 10:22:58;;;;;;;0.10;0.10;;;;;;;;;;5050624;28;20116;-83
2023/07/01 10:25:37;;;;;;;0.10;0.10;;;;;;;;;;5050734;28;20037;-82
2023/07/01 10:28:05;;;;;;;0.00;0.00;;;;;;;;;;5049175;28;20057;-85
2023/07/01 10:30:47;;;;;;;0.10;0.10;;;;;;;;;;5050718;28;20494;-84
2023/07/01 10:33:33;;;;;;;0.10;0.10;;;;;;;;;;5050217;28;20024;-84
2023/07/01 10:36:05;;;;;;;0.20;0.20;;;;;;;;;;5048861;28;20033;-84
2023/07/01 10:38:31;;;;;;;0.00;0.00;;;;;;;;;;5050744;28;20395;-84
2023/07/01 10:40:58;;;;;;;0.45;0.38;;;;;;;;;;5049574;28;20098;-84
2023/07/01 10:43:27;;;;;;;0.10;0.10;;;;;;;;;;5049713;28;20033;-84
2023/07/01 10:46:12;;;;;;;0.10;0.10;;;;;;;;;;5050861;28;20111;-84
2023/07/01 10:48:39;;;;;;;0.00;0.00;;;;;;;;;;5049689;28;20490;-84
2023/07/01 10:51:22;;;;;;;0.10;0.10;;;;;;;;;;5050471;28;20029;-83
2023/07/01 10:54:02;;;;;;;0.13;0.00;;;;;;;;;;5050389;28;20041;-83
2023/07/01 10:56:32;;;;;;;0.00;0.00;;;;;;;;;;5029877;28;20037;-83
2023/07/01 10:59:16;;;;;;;0.15;0.10;;;;;;;;;;5043262;28;20482;-83
2023/07/01 11:01:44;;;;;;;0.00;0.00;;;;;;;;;;5049726;28;20041;-84
2023/07/01 11:04:10;;;;;;;0.32;0.13;;;;;;;;;;5050019;28;20085;-83
2023/07/01 11:06:45;;;;;;;0.00;0.00;;;;;;;;;;5049613;28;20112;-84
2023/07/01 11:09:11;;;;;;;0.28;0.28;;;;;;;;;;5050041;28;20030;-84
2023/07/01 11:11:37;;;;;;;0.40;0.10;;;;;;;;;;5049546;28;20077;-84
2023/07/01 11:14:08;;;;;;;0.10;0.10;;;;;;;;;;5050612;28;20032;-83
2023/07/01 11:16:35;;;;;;;0.05;0.05;;;;;;;;;;5049159;28;20029;-83
2023/07/01 11:19:05;;;;;;;0.00;0.00;;;;;;;;;;5050084;28;20053;-84
2023/07/01 11:21:31;;;;;;;0.00;0.00;;;;;;;;;;5049661;28;20504;-83
2023/07/01 11:24:03;;;;;;;0.05;0.05;;;;;;;;;;5049932;28;20049;-83
2023/07/01 11:26:30;;;;;;;0.10;0.10;;;;;;;;;;5049332;28;20379;-83
2023/07/01 11:28:56;;;;;;;0.10;0.10;;;;;;;;;;5048944;28;20064;-83
2023/07/01 11:31:24;;;;;;;1.75;0.20;;;;;;;;;;5049567;28;20482;-83
2023/07/01 11:33:54;;;;;;;0.00;0.00;;;;;;;;;;5048756;28;20033;-83
2023/07/01 11:36:21;;;;;;;0.13;0.13;;;;;;;;;;5050141;28;20025;-84
2023/07/01 11:38:49;;;;;;;0.45;0.10;;;;;;;;;;5049646;28;20036;-88
2023/07/01 11:41:19;;;;;;;0.00;0.00;;;;;;;;;;5049529;28;20029;-84
2023/07/01 11:43:46;;;;;;;0.10;0.10;;;;;;;;;;5049303;28;20053;-84
2023/07/01 11:46:12;;;;;;;0.17;0.17;;;;;;;;;;5049789;27;20069;-83
2023/07/01 11:48:39;;;;;;;0.10;0.00;;;;;;;;;;5049247;28;20560;-85
2023/07/01 11:51:05;;;;;;;0.00;0.00;;;;;;;;;;5049394;28;20021;-85
2023/07/01 11:53:31;;;;;;;0.20;0.20;;;;;;;;;;5048419;28;20044;-85
2023/07/01 11:55:58;;;;;;;0.10;0.10;;;;;;;;;;5048961;28;20021;-85
2023/07/01 11:58:28;;;;;;;0.30;0.20;;;;;;;;;;5048508;28;20112;-85
2023/07/01 12:00:54;;;;;;;0.00;0.00;;;;;;;;;;5047564;28;20097;-84
2023/07/01 12:03:20;;;;;;;0.00;0.00;;;;;;;;;;5047884;28;20041;-85
2023/07/01 12:05:47;;;;;;;1.85;0.85;;;;;;;;;;5049104;28;20050;-83
2023/07/01 12:08:13;;;;;;;0.03;0.03;;;;;;;;;;5049613;28;20108;-82
2023/07/01 12:10:40;;;;;;;0.00;0.00;;;;;;;;;;5048266;28;20104;-83
2023/07/01 12:13:06;;;;;;;0.00;0.00;;;;;;;;;;5048870;28;20479;-82
2023/07/01 12:15:33;;;;;;;0.00;0.00;;;;;;;;;;5047634;28;20029;-82
2023/07/01 12:18:18;;;;;;;0.00;0.00;;;;;;;;;;5049191;28;20112;-82
2023/07/01 12:20:44;;;;;;;0.08;0.08;;;;;;;;;;5048339;28;20368;-82
2023/07/01 12:23:10;;;;;;;0.00;0.00;;;;;;;;;;5048707;28;20051;-82
2023/07/01 12:25:36;;;;;;;0.10;0.10;;;;;;;;;;5048663;28;20033;-83
2023/07/01 12:28:04;;;;;;;0.10;0.10;;;;;;;;;;5049032;28;20418;-88
2023/07/01 12:30:30;;;;;;;0.00;0.00;;;;;;;;;;5048020;28;20555;-83
2023/07/01 12:32:56;;;;;;;0.00;0.00;;;;;;;;;;5047348;28;20033;-82
2023/07/01 12:35:22;;;;;;;0.10;0.10;;;;;;;;;;5049020;28;20482;-83
2023/07/01 12:37:48;;;;;;;0.28;0.28;;;;;;;;;;5047948;28;20033;-82
2023/07/01 12:40:14;;;;;;;0.00;0.00;;;;;;;;;;5048519;28;20033;-82
2023/07/01 12:42:40;;;;;;;0.05;0.05;;;;;;;;;;5048764;28;20093;-83
2023/07/01 12:45:06;;;;;;;0.10;0.10;;;;;;;;;;5048294;28;20025;-83
2023/07/01 12:47:32;;;;;;;0.00;0.00;;;;;;;;;;5048593;27;20454;-83
2023/07/01 12:49:58;;;;;;;0.10;0.10;;;;;;;;;;5047901;28;20127;-83
2023/07/01 12:52:24;;;;;;;0.10;0.10;;;;;;;;;;5047386;28;20391;-83
2023/07/01 12:54:52;;;;;;;0.00;0.00;;;;;;;;;;5049305;28;20029;-83
2023/07/01 12:57:19;;;;;;;0.00;0.00;;;;;;;;;;5048408;28;20035;-82
2023/07/01 12:59:48;;;;;;;0.00;0.00;;;;;;;;;;5048629;28;20029;-81
2023/07/01 13:02:14;;;;;;;0.00;0.00;;;;;;;;;;5048172;28;20470;-82
2023/07/01 13:04:40;;;;;;;0.00;0.00;;;;;;;;;;5048670;28;20047;-82
2023/07/01 13:07:06;;;;;;;0.10;0.10;;;;;;;;;;5047899;28;20532;-83
2023/07/01 13:09:41;;;;;;;0.00;0.00;;;;;;;;;;5048569;28;20051;-87
2023/07/01 13:12:07;;;;;;;0.00;0.00;;;;;;;;;;5047604;28;20479;-82
2023/07/01 13:14:34;;;;;;;0.10;0.10;;;;;;;;;;5047338;28;20440;-82
2023/07/01 13:17:00;;;;;;;0.00;0.00;;;;;;;;;;5046909;28;20406;-83
2023/07/01 13:19:27;;;;;;;0.00;0.00;;;;;;;;;;5048834;28;20031;-82
2023/07/01 13:21:53;;;;;;;0.00;0.00;;;;;;;;;;5046438;28;20049;-83
2023/07/01 13:24:19;;;;;;;0.20;0.20;;;;;;;;;;5047928;28;20516;-82
2023/07/01 13:26:46;;;;;;;0.00;0.00;;;;;;;;;;5047814;28;20044;-82
2023/07/01 13:29:13;;;;;;;0.10;0.10;;;;;;;;;;5050199;28;20479;-82
2023/07/01 13:31:40;;;;;;;0.00;0.00;;;;;;;;;;5051857;28;20036;-82
2023/07/01 13:34:07;;;;;;;0.20;0.20;;;;;;;;;;5050477;28;20021;-82
2023/07/01 13:36:39;;;;;;;0.00;0.00;;;;;;;;;;5051808;28;20501;-82
2023/07/01 13:39:09;;;;;;;0.00;0.00;;;;;;;;;;5051111;28;20049;-82
2023/07/01 13:41:35;;;;;;;0.20;0.20;;;;;;;;;;5051478;28;20073;-81
2023/07/01 13:44:03;;;;;;;0.00;0.00;;;;;;;;;;5051177;28;20053;-82
2023/07/01 13:46:37;;;;;;;0.10;0.10;;;;;;;;;;5050196;27;20048;-82
2023/07/01 13:49:03;;;;;;;0.00;0.00;;;;;;;;;;5049857;28;20039;-82
2023/07/01 13:51:31;;;;;;;0.10;0.10;;;;;;;;;;5050966;28;20387;-82
2023/07/01 13:53:57;;;;;;;0.00;0.00;;;;;;;;;;5050460;28;20036;-82
2023/07/01 13:56:23;;;;;;;0.10;0.10;;;;;;;;;;5050806;28;20025;-82
2023/07/01 13:58:49;;;;;;;0.08;0.08;;;;;;;;;;5051562;28;20033;-82
2023/07/01 14:01:16;;;;;;;0.00;0.00;;;;;;;;;;5050936;28;20546;-82
2023/07/01 14:03:49;;;;;;;0.55;0.47;;;;;;;;;;5050878;28;20525;-81
2023/07/01 14:06:16;;;;;;;0.10;0.10;;;;;;;;;;5050515;28;20146;-82
2023/07/01 14:08:43;;;;;;;0.05;0.05;;;;;;;;;;5050885;28;20099;-82
2023/07/01 14:11:11;;;;;;;0.10;0.10;;;;;;;;;;5050583;28;20021;-82
2023/07/01 14:13:37;;;;;;;0.10;0.10;;;;;;;;;;5051267;28;20474;-82
2023/07/01 14:16:03;;;;;;;0.00;0.00;;;;;;;;;;5050901;28;20026;-82
2023/07/01 14:18:32;;;;;;;0.00;0.00;;;;;;;;;;5049071;28;20037;-83
2023/07/01 14:21:04;;;;;;;0.10;0.10;;;;;;;;;;5050899;28;20029;-83
2023/07/01 14:23:33;;;;;;;0.08;0.08;;;;;;;;;;5050421;28;20455;-82
2023/07/01 14:25:59;;;;;;;0.20;0.20;;;;;;;;;;5050851;28;20093;-82
2023/07/01 14:28:26;;;;;;;0.55;0.28;;;;;;;;;;5050602;27;20087;-84
2023/07/01 14:31:11;;;;;;;0.20;0.20;;;;;;;;;;5050732;28;20493;-82
2023/07/01 14:33:40;;;;;;;0.45;0.13;;;;;;;;;;5050293;28;20013;-86
2023/07/01 14:36:14;;;;;;;0.35;0.25;;;;;;;;;;5051079;28;20104;-86
2023/07/01 14:38:44;;;;;;;0.00;0.00;;;;;;;;;;5050285;28;20036;-86
2023/07/01 14:41:29;;;;;;;0.00;0.00;;;;;;;;;;5051039;28;20055;-86
2023/07/01 14:43:55;;;;;;;0.10;0.10;;;;;;;;;;5049869;28;20033;-86